sensor_id;sensor_type;location;lat;lon;timestamp;P1;durP1;ratioP1;P2;durP2;ratioP2
39956;SDS011;48483;44.640;7.494;2023-12-22T00:00:54;2.60;;;1.20;;
39956;SDS011;48483;44.640;7.494;2023-12-22T00:03:22;2.63;;;1.25;;
39956;SDS011;48483;44.640;7.494;2023-12-22T00:05:49;2.33;;;1.10;;
39956;SDS011;48483;44.640;7.494;2023-12-22T00:08:16;1.02;;;0.50;;
39956;SDS011;48483;44.640;7.494;2023-12-22T00:10:43;2.00;;;0.88;;
39956;SDS011;48483;44.640;7.494;2023-12-22T00:13:09;2.47;;;1.10;;
39956;SDS011;48483;44.640;7.494;2023-12-22T00:15:36;3.63;;;1.40;;
39956;SDS011;48483;44.640;7.494;2023-12-22T00:18:03;3.03;;;1.40;;
39956;SDS011;48483;44.640;7.494;2023-12-22T00:20:32;3.67;;;1.83;;
39956;SDS011;48483;44.640;7.494;2023-12-22T00:22:59;4.15;;;1.77;;
39956;SDS011;48483;44.640;7.494;2023-12-22T00:25:26;5.45;;;1.67;;
39956;SDS011;48483;44.640;7.494;2023-12-22T00:27:53;2.35;;;1.48;;
39956;SDS011;48483;44.640;7.494;2023-12-22T00:30:19;5.72;;;2.13;;
39956;SDS011;48483;44.640;7.494;2023-12-22T00:32:46;4.97;;;1.90;;
39956;SDS011;48483;44.640;7.494;2023-12-22T00:35:13;4.82;;;1.83;;
39956;SDS011;48483;44.640;7.494;2023-12-22T00:37:41;3.03;;;1.23;;
39956;SDS011;48483;44.640;7.494;2023-12-22T00:40:08;2.92;;;1.52;;
39956;SDS011;48483;44.640;7.494;2023-12-22T00:42:35;4.07;;;1.85;;
39956;SDS011;48483;44.640;7.494;2023-12-22T00:45:02;2.58;;;1.40;;
39956;SDS011;48483;44.640;7.494;2023-12-22T00:47:30;2.45;;;1.23;;
39956;SDS011;48483;44.640;7.494;2023-12-22T00:49:56;2.42;;;1.30;;
39956;SDS011;48483;44.640;7.494;2023-12-22T00:52:23;4.22;;;1.83;;
39956;SDS011;48483;44.640;7.494;2023-12-22T00:54:51;2.38;;;1.38;;
39956;SDS011;48483;44.640;7.494;2023-12-22T00:57:18;2.50;;;1.40;;
39956;SDS011;48483;44.640;7.494;2023-12-22T00:59:44;2.08;;;1.10;;
39956;SDS011;48483;44.640;7.494;2023-12-22T01:02:13;1.73;;;1.02;;
39956;SDS011;48483;44.640;7.494;2023-12-22T01:04:40;5.38;;;1.35;;
39956;SDS011;48483;44.640;7.494;2023-12-22T01:07:07;2.85;;;1.30;;
39956;SDS011;48483;44.640;7.494;2023-12-22T01:09:34;2.90;;;1.60;;
39956;SDS011;48483;44.640;7.494;2023-12-22T01:12:02;3.00;;;1.17;;
39956;SDS011;48483;44.640;7.494;2023-12-22T01:14:30;2.80;;;1.10;;
39956;SDS011;48483;44.640;7.494;2023-12-22T01:16:56;1.73;;;0.90;;
39956;SDS011;48483;44.640;7.494;2023-12-22T01:19:25;2.03;;;1.13;;
39956;SDS011;48483;44.640;7.494;2023-12-22T01:21:51;2.70;;;1.30;;
39956;SDS011;48483;44.640;7.494;2023-12-22T01:24:18;2.72;;;1.05;;
39956;SDS011;48483;44.640;7.494;2023-12-22T01:26:45;3.03;;;1.27;;
39956;SDS011;48483;44.640;7.494;2023-12-22T01:29:13;3.63;;;1.70;;
39956;SDS011;48483;44.640;7.494;2023-12-22T01:31:39;3.65;;;1.60;;
39956;SDS011;48483;44.640;7.494;2023-12-22T01:34:06;2.35;;;1.17;;
39956;SDS011;48483;44.640;7.494;2023-12-22T01:36:33;2.22;;;1.27;;
39956;SDS011;48483;44.640;7.494;2023-12-22T01:39:00;3.20;;;1.23;;
39956;SDS011;48483;44.640;7.494;2023-12-22T01:41:27;2.03;;;1.25;;
39956;SDS011;48483;44.640;7.494;2023-12-22T01:43:54;3.42;;;1.50;;
39956;SDS011;48483;44.640;7.494;2023-12-22T01:46:22;3.42;;;1.40;;
39956;SDS011;48483;44.640;7.494;2023-12-22T01:48:49;4.20;;;1.73;;
39956;SDS011;48483;44.640;7.494;2023-12-22T01:51:15;2.92;;;1.40;;
39956;SDS011;48483;44.640;7.494;2023-12-22T01:53:43;2.30;;;1.20;;
39956;SDS011;48483;44.640;7.494;2023-12-22T01:56:11;2.60;;;1.20;;
39956;SDS011;48483;44.640;7.494;2023-12-22T01:58:38;2.13;;;1.17;;
39956;SDS011;48483;44.640;7.494;2023-12-22T02:01:16;2.50;;;1.38;;
39956;SDS011;48483;44.640;7.494;2023-12-22T02:03:45;3.53;;;1.52;;
39956;SDS011;48483;44.640;7.494;2023-12-22T02:06:12;3.60;;;1.38;;
39956;SDS011;48483;44.640;7.494;2023-12-22T02:08:39;5.00;;;1.80;;
39956;SDS011;48483;44.640;7.494;2023-12-22T02:11:07;2.50;;;1.27;;
39956;SDS011;48483;44.640;7.494;2023-12-22T02:13:34;2.72;;;1.35;;
39956;SDS011;48483;44.640;7.494;2023-12-22T02:16:01;3.88;;;1.80;;
39956;SDS011;48483;44.640;7.494;2023-12-22T02:18:32;3.67;;;1.50;;
39956;SDS011;48483;44.640;7.494;2023-12-22T02:21:02;2.25;;;1.13;;
39956;SDS011;48483;44.640;7.494;2023-12-22T02:23:31;3.08;;;1.77;;
39956;SDS011;48483;44.640;7.494;2023-12-22T02:26:02;3.97;;;1.17;;
39956;SDS011;48483;44.640;7.494;2023-12-22T02:28:36;3.28;;;1.20;;
39956;SDS011;48483;44.640;7.494;2023-12-22T02:31:08;3.15;;;1.42;;
39956;SDS011;48483;44.640;7.494;2023-12-22T02:33:42;6.82;;;1.63;;
39956;SDS011;48483;44.640;7.494;2023-12-22T02:36:10;3.72;;;1.75;;
39956;SDS011;48483;44.640;7.494;2023-12-22T02:38:40;2.60;;;1.50;;
39956;SDS011;48483;44.640;7.494;2023-12-22T02:41:08;4.47;;;1.40;;
39956;SDS011;48483;44.640;7.494;2023-12-22T02:43:35;3.03;;;1.48;;
39956;SDS011;48483;44.640;7.494;2023-12-22T02:46:02;3.45;;;1.67;;
39956;SDS011;48483;44.640;7.494;2023-12-22T02:48:29;4.05;;;1.65;;
39956;SDS011;48483;44.640;7.494;2023-12-22T02:50:56;3.38;;;1.70;;
39956;SDS011;48483;44.640;7.494;2023-12-22T02:53:22;4.43;;;1.50;;
39956;SDS011;48483;44.640;7.494;2023-12-22T02:55:51;3.13;;;1.50;;
39956;SDS011;48483;44.640;7.494;2023-12-22T02:58:17;2.83;;;1.40;;
39956;SDS011;48483;44.640;7.494;2023-12-22T03:00:44;3.15;;;1.42;;
39956;SDS011;48483;44.640;7.494;2023-12-22T03:03:12;2.95;;;0.98;;
39956;SDS011;48483;44.640;7.494;2023-12-22T03:05:39;2.90;;;1.55;;
39956;SDS011;48483;44.640;7.494;2023-12-22T03:08:06;3.05;;;1.00;;
39956;SDS011;48483;44.640;7.494;2023-12-22T03:10:32;2.05;;;0.98;;
39956;SDS011;48483;44.640;7.494;2023-12-22T03:13:00;2.40;;;0.82;;
39956;SDS011;48483;44.640;7.494;2023-12-22T03:15:27;1.85;;;0.63;;
39956;SDS011;48483;44.640;7.494;2023-12-22T03:17:54;1.60;;;0.70;;
39956;SDS011;48483;44.640;7.494;2023-12-22T03:20:22;2.95;;;0.82;;
39956;SDS011;48483;44.640;7.494;2023-12-22T03:22:48;1.13;;;0.70;;
39956;SDS011;48483;44.640;7.494;2023-12-22T03:25:15;1.58;;;0.88;;
39956;SDS011;48483;44.640;7.494;2023-12-22T03:27:42;3.53;;;1.15;;
39956;SDS011;48483;44.640;7.494;2023-12-22T03:30:10;2.45;;;0.70;;
39956;SDS011;48483;44.640;7.494;2023-12-22T03:32:38;0.47;;;0.40;;
39956;SDS011;48483;44.640;7.494;2023-12-22T03:35:05;2.80;;;0.82;;
39956;SDS011;48483;44.640;7.494;2023-12-22T03:37:32;1.65;;;0.80;;
39956;SDS011;48483;44.640;7.494;2023-12-22T03:39:58;2.10;;;0.80;;
39956;SDS011;48483;44.640;7.494;2023-12-22T03:42:25;2.58;;;0.60;;
39956;SDS011;48483;44.640;7.494;2023-12-22T03:44:51;1.58;;;0.95;;
39956;SDS011;48483;44.640;7.494;2023-12-22T03:47:20;2.53;;;1.80;;
39956;SDS011;48483;44.640;7.494;2023-12-22T03:49:46;1.45;;;0.70;;
39956;SDS011;48483;44.640;7.494;2023-12-22T03:52:13;2.70;;;0.60;;
39956;SDS011;48483;44.640;7.494;2023-12-22T03:54:40;1.10;;;0.50;;
39956;SDS011;48483;44.640;7.494;2023-12-22T03:57:07;2.10;;;0.60;;
39956;SDS011;48483;44.640;7.494;2023-12-22T03:59:33;2.30;;;0.90;;
39956;SDS011;48483;44.640;7.494;2023-12-22T04:02:00;1.38;;;0.60;;
39956;SDS011;48483;44.640;7.494;2023-12-22T04:04:29;1.88;;;0.73;;
39956;SDS011;48483;44.640;7.494;2023-12-22T04:06:56;0.80;;;0.60;;
39956;SDS011;48483;44.640;7.494;2023-12-22T04:09:22;1.70;;;0.80;;
39956;SDS011;48483;44.640;7.494;2023-12-22T04:11:49;4.45;;;0.68;;
39956;SDS011;48483;44.640;7.494;2023-12-22T04:14:16;1.67;;;0.70;;
39956;SDS011;48483;44.640;7.494;2023-12-22T04:16:44;2.42;;;0.65;;
39956;SDS011;48483;44.640;7.494;2023-12-22T04:19:11;1.17;;;0.70;;
39956;SDS011;48483;44.640;7.494;2023-12-22T04:21:39;2.38;;;0.60;;
39956;SDS011;48483;44.640;7.494;2023-12-22T04:24:06;0.75;;;0.43;;
39956;SDS011;48483;44.640;7.494;2023-12-22T04:26:32;2.30;;;0.70;;
39956;SDS011;48483;44.640;7.494;2023-12-22T04:28:59;2.00;;;0.57;;
39956;SDS011;48483;44.640;7.494;2023-12-22T04:31:26;2.03;;;0.82;;
39956;SDS011;48483;44.640;7.494;2023-12-22T04:33:52;3.83;;;1.05;;
39956;SDS011;48483;44.640;7.494;2023-12-22T04:36:19;4.05;;;0.93;;
39956;SDS011;48483;44.640;7.494;2023-12-22T04:38:47;2.88;;;0.80;;
39956;SDS011;48483;44.640;7.494;2023-12-22T04:41:14;2.65;;;0.90;;
39956;SDS011;48483;44.640;7.494;2023-12-22T04:43:40;1.92;;;0.77;;
39956;SDS011;48483;44.640;7.494;2023-12-22T04:46:07;2.15;;;1.10;;
39956;SDS011;48483;44.640;7.494;2023-12-22T04:48:34;2.47;;;1.02;;
39956;SDS011;48483;44.640;7.494;2023-12-22T04:51:00;3.72;;;1.13;;
39956;SDS011;48483;44.640;7.494;2023-12-22T04:53:28;3.17;;;1.30;;
39956;SDS011;48483;44.640;7.494;2023-12-22T04:55:56;2.88;;;1.20;;
39956;SDS011;48483;44.640;7.494;2023-12-22T04:58:22;3.35;;;1.05;;
39956;SDS011;48483;44.640;7.494;2023-12-22T05:00:50;2.45;;;1.23;;
39956;SDS011;48483;44.640;7.494;2023-12-22T05:03:16;2.22;;;0.88;;
39956;SDS011;48483;44.640;7.494;2023-12-22T05:05:43;1.90;;;1.00;;
39956;SDS011;48483;44.640;7.494;2023-12-22T05:08:10;4.35;;;1.35;;
39956;SDS011;48483;44.640;7.494;2023-12-22T05:10:36;2.05;;;1.00;;
39956;SDS011;48483;44.640;7.494;2023-12-22T05:13:04;2.33;;;1.30;;
39956;SDS011;48483;44.640;7.494;2023-12-22T05:15:31;4.65;;;1.08;;
39956;SDS011;48483;44.640;7.494;2023-12-22T05:17:58;3.40;;;1.05;;
39956;SDS011;48483;44.640;7.494;2023-12-22T05:20:24;5.30;;;0.95;;
39956;SDS011;48483;44.640;7.494;2023-12-22T05:22:51;2.38;;;1.10;;
39956;SDS011;48483;44.640;7.494;2023-12-22T05:25:18;3.45;;;1.08;;
39956;SDS011;48483;44.640;7.494;2023-12-22T05:27:44;2.55;;;0.95;;
39956;SDS011;48483;44.640;7.494;2023-12-22T05:30:13;3.47;;;1.05;;
39956;SDS011;48483;44.640;7.494;2023-12-22T05:32:40;4.10;;;1.15;;
39956;SDS011;48483;44.640;7.494;2023-12-22T05:35:07;2.35;;;0.90;;
39956;SDS011;48483;44.640;7.494;2023-12-22T05:37:33;2.25;;;0.98;;
39956;SDS011;48483;44.640;7.494;2023-12-22T05:40:00;2.67;;;1.15;;
39956;SDS011;48483;44.640;7.494;2023-12-22T05:42:27;4.18;;;1.60;;
39956;SDS011;48483;44.640;7.494;2023-12-22T05:44:54;4.38;;;1.48;;
39956;SDS011;48483;44.640;7.494;2023-12-22T05:47:22;7.20;;;1.40;;
39956;SDS011;48483;44.640;7.494;2023-12-22T05:49:48;2.28;;;1.00;;
39956;SDS011;48483;44.640;7.494;2023-12-22T05:52:15;4.13;;;1.40;;
39956;SDS011;48483;44.640;7.494;2023-12-22T05:54:42;2.17;;;1.33;;
39956;SDS011;48483;44.640;7.494;2023-12-22T05:57:08;5.57;;;1.90;;
39956;SDS011;48483;44.640;7.494;2023-12-22T05:59:35;2.78;;;1.27;;
39956;SDS011;48483;44.640;7.494;2023-12-22T06:02:02;4.47;;;2.00;;
39956;SDS011;48483;44.640;7.494;2023-12-22T06:04:30;9.05;;;1.48;;
39956;SDS011;48483;44.640;7.494;2023-12-22T06:06:57;4.53;;;1.70;;
39956;SDS011;48483;44.640;7.494;2023-12-22T06:09:23;3.65;;;1.50;;
39956;SDS011;48483;44.640;7.494;2023-12-22T06:11:50;3.90;;;1.00;;
39956;SDS011;48483;44.640;7.494;2023-12-22T06:14:17;3.22;;;1.35;;
39956;SDS011;48483;44.640;7.494;2023-12-22T06:16:43;3.97;;;1.00;;
39956;SDS011;48483;44.640;7.494;2023-12-22T06:19:10;5.50;;;2.10;;
39956;SDS011;48483;44.640;7.494;2023-12-22T06:21:40;3.08;;;1.45;;
39956;SDS011;48483;44.640;7.494;2023-12-22T06:24:07;3.60;;;1.00;;
39956;SDS011;48483;44.640;7.494;2023-12-22T06:26:34;1.83;;;0.85;;
39956;SDS011;48483;44.640;7.494;2023-12-22T06:29:01;3.90;;;1.30;;
39956;SDS011;48483;44.640;7.494;2023-12-22T06:31:29;5.10;;;1.30;;
39956;SDS011;48483;44.640;7.494;2023-12-22T06:33:56;5.28;;;1.10;;
39956;SDS011;48483;44.640;7.494;2023-12-22T06:36:27;1.85;;;0.82;;
39956;SDS011;48483;44.640;7.494;2023-12-22T06:38:59;4.93;;;1.10;;
39956;SDS011;48483;44.640;7.494;2023-12-22T06:41:26;5.60;;;1.48;;
39956;SDS011;48483;44.640;7.494;2023-12-22T06:43:54;6.07;;;1.50;;
39956;SDS011;48483;44.640;7.494;2023-12-22T06:46:22;11.75;;;2.00;;
39956;SDS011;48483;44.640;7.494;2023-12-22T06:48:51;3.97;;;1.45;;
39956;SDS011;48483;44.640;7.494;2023-12-22T06:51:19;6.30;;;1.52;;
39956;SDS011;48483;44.640;7.494;2023-12-22T06:53:46;7.15;;;1.60;;
39956;SDS011;48483;44.640;7.494;2023-12-22T06:56:18;7.20;;;1.30;;
39956;SDS011;48483;44.640;7.494;2023-12-22T06:58:46;1.95;;;1.17;;
39956;SDS011;48483;44.640;7.494;2023-12-22T07:01:17;5.78;;;1.60;;
39956;SDS011;48483;44.640;7.494;2023-12-22T07:03:46;4.85;;;1.20;;
39956;SDS011;48483;44.640;7.494;2023-12-22T07:06:13;0.65;;;0.60;;
39956;SDS011;48483;44.640;7.494;2023-12-22T07:08:40;2.90;;;0.90;;
39956;SDS011;48483;44.640;7.494;2023-12-22T07:11:08;8.98;;;1.70;;
39956;SDS011;48483;44.640;7.494;2023-12-22T07:13:36;4.97;;;1.63;;
39956;SDS011;48483;44.640;7.494;2023-12-22T07:16:03;5.30;;;2.00;;
39956;SDS011;48483;44.640;7.494;2023-12-22T07:18:31;7.63;;;2.15;;
39956;SDS011;48483;44.640;7.494;2023-12-22T07:20:58;7.88;;;2.60;;
39956;SDS011;48483;44.640;7.494;2023-12-22T07:23:26;5.30;;;2.08;;
39956;SDS011;48483;44.640;7.494;2023-12-22T07:25:52;7.95;;;1.80;;
39956;SDS011;48483;44.640;7.494;2023-12-22T07:28:19;5.70;;;1.95;;
39956;SDS011;48483;44.640;7.494;2023-12-22T07:30:47;7.75;;;1.67;;
39956;SDS011;48483;44.640;7.494;2023-12-22T07:33:13;4.65;;;2.13;;
39956;SDS011;48483;44.640;7.494;2023-12-22T07:35:40;6.60;;;1.58;;
39956;SDS011;48483;44.640;7.494;2023-12-22T07:38:07;2.70;;;0.98;;
39956;SDS011;48483;44.640;7.494;2023-12-22T07:40:35;2.60;;;1.02;;
39956;SDS011;48483;44.640;7.494;2023-12-22T07:43:02;3.55;;;1.27;;
39956;SDS011;48483;44.640;7.494;2023-12-22T07:45:29;2.25;;;1.27;;
39956;SDS011;48483;44.640;7.494;2023-12-22T07:47:58;4.57;;;0.88;;
39956;SDS011;48483;44.640;7.494;2023-12-22T07:50:24;3.75;;;1.00;;
39956;SDS011;48483;44.640;7.494;2023-12-22T07:52:51;3.17;;;1.25;;
39956;SDS011;48483;44.640;7.494;2023-12-22T07:55:18;4.28;;;1.20;;
39956;SDS011;48483;44.640;7.494;2023-12-22T07:57:44;3.05;;;0.90;;
39956;SDS011;48483;44.640;7.494;2023-12-22T08:00:12;4.18;;;1.00;;
39956;SDS011;48483;44.640;7.494;2023-12-22T08:02:39;2.40;;;1.23;;
39956;SDS011;48483;44.640;7.494;2023-12-22T08:05:07;3.60;;;0.82;;
39956;SDS011;48483;44.640;7.494;2023-12-22T08:07:34;3.28;;;0.77;;
39956;SDS011;48483;44.640;7.494;2023-12-22T08:10:01;2.92;;;0.80;;
39956;SDS011;48483;44.640;7.494;2023-12-22T08:12:28;1.30;;;0.60;;
39956;SDS011;48483;44.640;7.494;2023-12-22T08:14:55;4.05;;;0.70;;
39956;SDS011;48483;44.640;7.494;2023-12-22T08:17:22;2.38;;;1.00;;
39956;SDS011;48483;44.640;7.494;2023-12-22T08:19:48;1.85;;;1.05;;
39956;SDS011;48483;44.640;7.494;2023-12-22T08:22:17;4.32;;;0.90;;
39956;SDS011;48483;44.640;7.494;2023-12-22T08:24:43;1.73;;;1.08;;
39956;SDS011;48483;44.640;7.494;2023-12-22T08:27:11;8.07;;;1.63;;
39956;SDS011;48483;44.640;7.494;2023-12-22T08:29:37;3.63;;;0.88;;
39956;SDS011;48483;44.640;7.494;2023-12-22T08:32:04;4.75;;;0.90;;
39956;SDS011;48483;44.640;7.494;2023-12-22T08:34:31;5.55;;;1.00;;
39956;SDS011;48483;44.640;7.494;2023-12-22T08:36:58;4.22;;;1.00;;
39956;SDS011;48483;44.640;7.494;2023-12-22T08:39:27;3.95;;;1.35;;
39956;SDS011;48483;44.640;7.494;2023-12-22T08:41:54;3.80;;;0.75;;
39956;SDS011;48483;44.640;7.494;2023-12-22T08:44:21;3.90;;;0.90;;
39956;SDS011;48483;44.640;7.494;2023-12-22T08:46:47;4.05;;;0.93;;
39956;SDS011;48483;44.640;7.494;2023-12-22T08:49:14;3.97;;;1.35;;
39956;SDS011;48483;44.640;7.494;2023-12-22T08:51:41;1.70;;;0.77;;
39956;SDS011;48483;44.640;7.494;2023-12-22T08:54:07;3.03;;;0.80;;
39956;SDS011;48483;44.640;7.494;2023-12-22T08:56:35;4.07;;;0.70;;
39956;SDS011;48483;44.640;7.494;2023-12-22T08:59:02;4.60;;;0.75;;
39956;SDS011;48483;44.640;7.494;2023-12-22T09:01:29;2.33;;;0.80;;
39956;SDS011;48483;44.640;7.494;2023-12-22T09:03:56;2.10;;;0.63;;
39956;SDS011;48483;44.640;7.494;2023-12-22T09:06:23;1.83;;;0.85;;
39956;SDS011;48483;44.640;7.494;2023-12-22T09:08:50;2.30;;;0.70;;
39956;SDS011;48483;44.640;7.494;2023-12-22T09:11:18;2.40;;;0.57;;
39956;SDS011;48483;44.640;7.494;2023-12-22T09:13:47;3.55;;;0.60;;
39956;SDS011;48483;44.640;7.494;2023-12-22T09:16:16;2.15;;;0.90;;
39956;SDS011;48483;44.640;7.494;2023-12-22T09:18:47;3.58;;;0.60;;
39956;SDS011;48483;44.640;7.494;2023-12-22T09:21:13;4.35;;;1.20;;
39956;SDS011;48483;44.640;7.494;2023-12-22T09:23:40;4.82;;;0.60;;
39956;SDS011;48483;44.640;7.494;2023-12-22T09:26:10;8.90;;;4.90;;
39956;SDS011;48483;44.640;7.494;2023-12-22T09:28:37;13.50;;;6.50;;
39956;SDS011;48483;44.640;7.494;2023-12-22T09:31:05;13.77;;;7.00;;
39956;SDS011;48483;44.640;7.494;2023-12-22T09:33:32;10.75;;;7.28;;
39956;SDS011;48483;44.640;7.494;2023-12-22T09:35:59;12.45;;;7.18;;
39956;SDS011;48483;44.640;7.494;2023-12-22T09:38:26;5.30;;;2.83;;
39956;SDS011;48483;44.640;7.494;2023-12-22T09:40:53;7.03;;;2.10;;
39956;SDS011;48483;44.640;7.494;2023-12-22T09:43:21;3.72;;;2.10;;
39956;SDS011;48483;44.640;7.494;2023-12-22T09:45:49;3.17;;;1.85;;
39956;SDS011;48483;44.640;7.494;2023-12-22T09:48:18;4.15;;;1.60;;
39956;SDS011;48483;44.640;7.494;2023-12-22T09:50:53;6.82;;;2.53;;
39956;SDS011;48483;44.640;7.494;2023-12-22T09:53:20;6.20;;;1.38;;
39956;SDS011;48483;44.640;7.494;2023-12-22T09:55:48;4.95;;;1.25;;
39956;SDS011;48483;44.640;7.494;2023-12-22T09:58:15;3.30;;;1.10;;
39956;SDS011;48483;44.640;7.494;2023-12-22T10:00:43;4.50;;;0.77;;
39956;SDS011;48483;44.640;7.494;2023-12-22T10:03:10;3.63;;;0.90;;
39956;SDS011;48483;44.640;7.494;2023-12-22T10:05:40;2.88;;;0.95;;
39956;SDS011;48483;44.640;7.494;2023-12-22T10:08:06;1.85;;;0.77;;
39956;SDS011;48483;44.640;7.494;2023-12-22T10:10:38;3.47;;;0.80;;
39956;SDS011;48483;44.640;7.494;2023-12-22T10:13:06;2.80;;;0.95;;
39956;SDS011;48483;44.640;7.494;2023-12-22T10:15:36;4.78;;;0.95;;
39956;SDS011;48483;44.640;7.494;2023-12-22T10:18:08;3.45;;;1.30;;
39956;SDS011;48483;44.640;7.494;2023-12-22T10:20:35;3.22;;;0.80;;
39956;SDS011;48483;44.640;7.494;2023-12-22T10:23:04;9.00;;;2.00;;
39956;SDS011;48483;44.640;7.494;2023-12-22T10:25:31;5.10;;;0.93;;
39956;SDS011;48483;44.640;7.494;2023-12-22T10:27:58;3.53;;;2.50;;
39956;SDS011;48483;44.640;7.494;2023-12-22T10:30:25;5.65;;;1.35;;
39956;SDS011;48483;44.640;7.494;2023-12-22T10:32:53;2.28;;;0.70;;
39956;SDS011;48483;44.640;7.494;2023-12-22T10:35:20;3.00;;;0.88;;
39956;SDS011;48483;44.640;7.494;2023-12-22T10:37:47;1.10;;;0.45;;
39956;SDS011;48483;44.640;7.494;2023-12-22T10:42:46;2.90;;;0.50;;
39956;SDS011;48483;44.640;7.494;2023-12-22T10:45:14;1.48;;;0.70;;
39956;SDS011;48483;44.640;7.494;2023-12-22T10:47:43;4.50;;;1.70;;
39956;SDS011;48483;44.640;7.494;2023-12-22T10:50:11;1.98;;;1.00;;
39956;SDS011;48483;44.640;7.494;2023-12-22T10:52:39;2.17;;;0.70;;
39956;SDS011;48483;44.640;7.494;2023-12-22T10:55:07;2.33;;;0.88;;
39956;SDS011;48483;44.640;7.494;2023-12-22T10:57:35;1.85;;;1.13;;
39956;SDS011;48483;44.640;7.494;2023-12-22T11:00:05;1.65;;;0.50;;
39956;SDS011;48483;44.640;7.494;2023-12-22T11:02:34;3.60;;;0.80;;
39956;SDS011;48483;44.640;7.494;2023-12-22T11:05:03;5.37;;;0.87;;
39956;SDS011;48483;44.640;7.494;2023-12-22T11:07:32;2.22;;;0.52;;
39956;SDS011;48483;44.640;7.494;2023-12-22T11:10:01;2.47;;;0.80;;
39956;SDS011;48483;44.640;7.494;2023-12-22T11:12:30;2.63;;;0.82;;
39956;SDS011;48483;44.640;7.494;2023-12-22T11:15:00;1.77;;;0.65;;
39956;SDS011;48483;44.640;7.494;2023-12-22T11:17:29;4.57;;;1.40;;
39956;SDS011;48483;44.640;7.494;2023-12-22T11:19:58;3.47;;;0.77;;
39956;SDS011;48483;44.640;7.494;2023-12-22T11:22:25;4.13;;;0.60;;
39956;SDS011;48483;44.640;7.494;2023-12-22T11:24:53;1.65;;;0.73;;
39956;SDS011;48483;44.640;7.494;2023-12-22T11:27:21;1.90;;;0.60;;
39956;SDS011;48483;44.640;7.494;2023-12-22T11:29:48;1.95;;;0.80;;
39956;SDS011;48483;44.640;7.494;2023-12-22T11:32:17;2.78;;;0.88;;
39956;SDS011;48483;44.640;7.494;2023-12-22T11:34:45;1.85;;;0.63;;
39956;SDS011;48483;44.640;7.494;2023-12-22T11:37:13;7.13;;;0.70;;
39956;SDS011;48483;44.640;7.494;2023-12-22T11:39:40;2.15;;;1.30;;
39956;SDS011;48483;44.640;7.494;2023-12-22T11:42:08;3.75;;;1.00;;
39956;SDS011;48483;44.640;7.494;2023-12-22T11:44:40;3.17;;;0.85;;
39956;SDS011;48483;44.640;7.494;2023-12-22T11:47:07;1.08;;;0.65;;
39956;SDS011;48483;44.640;7.494;2023-12-22T11:49:36;5.18;;;1.38;;
39956;SDS011;48483;44.640;7.494;2023-12-22T11:52:10;3.35;;;0.40;;
39956;SDS011;48483;44.640;7.494;2023-12-22T11:54:44;2.58;;;0.73;;
39956;SDS011;48483;44.640;7.494;2023-12-22T11:59:58;1.55;;;0.73;;
39956;SDS011;48483;44.640;7.494;2023-12-22T12:02:39;2.60;;;0.60;;
39956;SDS011;48483;44.640;7.494;2023-12-22T12:05:08;2.05;;;0.60;;
39956;SDS011;48483;44.640;7.494;2023-12-22T12:07:36;1.00;;;0.50;;
39956;SDS011;48483;44.640;7.494;2023-12-22T12:10:06;1.63;;;0.50;;
39956;SDS011;48483;44.640;7.494;2023-12-22T12:12:34;4.25;;;0.60;;
39956;SDS011;48483;44.640;7.494;2023-12-22T12:15:08;3.60;;;0.77;;
39956;SDS011;48483;44.640;7.494;2023-12-22T12:17:40;4.15;;;0.90;;
39956;SDS011;48483;44.640;7.494;2023-12-22T12:20:10;3.88;;;0.77;;
39956;SDS011;48483;44.640;7.494;2023-12-22T12:22:37;3.92;;;0.80;;
39956;SDS011;48483;44.640;7.494;2023-12-22T12:25:08;2.70;;;0.90;;
39956;SDS011;48483;44.640;7.494;2023-12-22T12:27:38;4.03;;;1.42;;
39956;SDS011;48483;44.640;7.494;2023-12-22T12:30:12;4.97;;;1.42;;
39956;SDS011;48483;44.640;7.494;2023-12-22T12:32:43;2.85;;;1.33;;
39956;SDS011;48483;44.640;7.494;2023-12-22T12:35:14;3.72;;;1.00;;
39956;SDS011;48483;44.640;7.494;2023-12-22T12:37:44;2.03;;;0.90;;
39956;SDS011;48483;44.640;7.494;2023-12-22T12:40:11;5.07;;;1.45;;
39956;SDS011;48483;44.640;7.494;2023-12-22T12:42:41;5.13;;;1.80;;
39956;SDS011;48483;44.640;7.494;2023-12-22T12:45:08;3.05;;;1.17;;
39956;SDS011;48483;44.640;7.494;2023-12-22T12:47:35;7.20;;;3.22;;
39956;SDS011;48483;44.640;7.494;2023-12-22T12:50:02;5.13;;;2.25;;
39956;SDS011;48483;44.640;7.494;2023-12-22T12:52:31;7.68;;;2.20;;
39956;SDS011;48483;44.640;7.494;2023-12-22T12:54:58;4.00;;;1.27;;
39956;SDS011;48483;44.640;7.494;2023-12-22T12:57:26;4.82;;;1.20;;
39956;SDS011;48483;44.640;7.494;2023-12-22T12:59:53;3.03;;;1.08;;
39956;SDS011;48483;44.640;7.494;2023-12-22T13:02:20;2.70;;;1.00;;
39956;SDS011;48483;44.640;7.494;2023-12-22T13:04:48;4.60;;;1.70;;
39956;SDS011;48483;44.640;7.494;2023-12-22T13:07:23;3.10;;;1.45;;
39956;SDS011;48483;44.640;7.494;2023-12-22T13:09:53;5.60;;;1.92;;
39956;SDS011;48483;44.640;7.494;2023-12-22T13:12:20;4.78;;;1.42;;
39956;SDS011;48483;44.640;7.494;2023-12-22T13:14:46;2.92;;;1.25;;
39956;SDS011;48483;44.640;7.494;2023-12-22T13:17:14;5.50;;;1.83;;
39956;SDS011;48483;44.640;7.494;2023-12-22T13:19:41;3.45;;;1.67;;
39956;SDS011;48483;44.640;7.494;2023-12-22T13:22:08;7.25;;;2.17;;
39956;SDS011;48483;44.640;7.494;2023-12-22T13:24:35;5.97;;;1.77;;
39956;SDS011;48483;44.640;7.494;2023-12-22T13:27:03;3.35;;;1.42;;
39956;SDS011;48483;44.640;7.494;2023-12-22T13:29:41;4.68;;;2.00;;
39956;SDS011;48483;44.640;7.494;2023-12-22T13:32:14;9.80;;;1.90;;
39956;SDS011;48483;44.640;7.494;2023-12-22T13:34:46;6.25;;;1.90;;
39956;SDS011;48483;44.640;7.494;2023-12-22T13:37:16;4.45;;;1.80;;
39956;SDS011;48483;44.640;7.494;2023-12-22T13:39:43;3.85;;;1.20;;
39956;SDS011;48483;44.640;7.494;2023-12-22T13:42:16;9.75;;;1.70;;
39956;SDS011;48483;44.640;7.494;2023-12-22T13:44:43;3.85;;;1.35;;
39956;SDS011;48483;44.640;7.494;2023-12-22T13:47:13;4.70;;;1.30;;
39956;SDS011;48483;44.640;7.494;2023-12-22T13:49:41;2.22;;;1.20;;
39956;SDS011;48483;44.640;7.494;2023-12-22T13:52:08;3.78;;;1.88;;
39956;SDS011;48483;44.640;7.494;2023-12-22T13:54:49;5.07;;;1.45;;
39956;SDS011;48483;44.640;7.494;2023-12-22T13:57:20;6.00;;;1.80;;
39956;SDS011;48483;44.640;7.494;2023-12-22T13:59:50;5.50;;;2.40;;
39956;SDS011;48483;44.640;7.494;2023-12-22T14:02:19;4.05;;;1.80;;
39956;SDS011;48483;44.640;7.494;2023-12-22T14:04:48;4.47;;;1.60;;
39956;SDS011;48483;44.640;7.494;2023-12-22T14:07:15;6.40;;;2.00;;
39956;SDS011;48483;44.640;7.494;2023-12-22T14:09:42;4.80;;;2.00;;
39956;SDS011;48483;44.640;7.494;2023-12-22T14:12:09;6.72;;;2.50;;
39956;SDS011;48483;44.640;7.494;2023-12-22T14:14:37;4.53;;;1.55;;
39956;SDS011;48483;44.640;7.494;2023-12-22T14:17:03;5.30;;;1.65;;
39956;SDS011;48483;44.640;7.494;2023-12-22T14:19:30;5.00;;;2.08;;
39956;SDS011;48483;44.640;7.494;2023-12-22T14:21:57;5.00;;;1.40;;
39956;SDS011;48483;44.640;7.494;2023-12-22T14:24:23;9.25;;;2.08;;
39956;SDS011;48483;44.640;7.494;2023-12-22T14:26:53;4.05;;;1.27;;
39956;SDS011;48483;44.640;7.494;2023-12-22T14:31:51;6.97;;;2.90;;
39956;SDS011;48483;44.640;7.494;2023-12-22T14:34:18;8.73;;;3.20;;
39956;SDS011;48483;44.640;7.494;2023-12-22T14:36:45;8.13;;;3.08;;
39956;SDS011;48483;44.640;7.494;2023-12-22T14:39:12;6.35;;;3.33;;
39956;SDS011;48483;44.640;7.494;2023-12-22T14:41:39;7.20;;;3.03;;
39956;SDS011;48483;44.640;7.494;2023-12-22T14:44:07;7.03;;;3.25;;
39956;SDS011;48483;44.640;7.494;2023-12-22T14:46:36;5.05;;;2.58;;
39956;SDS011;48483;44.640;7.494;2023-12-22T14:49:05;5.40;;;2.20;;
39956;SDS011;48483;44.640;7.494;2023-12-22T14:51:36;5.85;;;3.85;;
39956;SDS011;48483;44.640;7.494;2023-12-22T14:54:03;5.07;;;2.63;;
39956;SDS011;48483;44.640;7.494;2023-12-22T14:56:30;4.32;;;2.15;;
39956;SDS011;48483;44.640;7.494;2023-12-22T14:58:57;4.13;;;1.80;;